createdAt,value
2018-07-22T05:25:01.160Z,46.30
2018-07-22T05:27:29.988Z,46.90
2018-07-22T05:29:58.822Z,47.00
2018-07-22T05:32:27.683Z,46.60
2018-07-22T05:34:56.580Z,47.00
2018-07-22T05:37:25.476Z,46.20
2018-07-22T05:39:54.347Z,46.00
2018-07-22T05:42:23.194Z,46.00
2018-07-22T05:44:52.342Z,46.10
2018-07-22T05:47:21.226Z,46.00
2018-07-22T05:49:50.072Z,45.70
2018-07-22T05:52:18.874Z,45.50
2018-07-22T05:54:47.705Z,45.30
2018-07-22T05:57:16.535Z,45.00
2018-07-22T05:59:45.377Z,44.70
2018-07-22T06:02:14.199Z,44.50
2018-07-22T06:04:43.068Z,44.00
2018-07-22T06:07:11.893Z,43.60
2018-07-22T06:09:40.748Z,43.20
2018-07-22T06:12:09.615Z,43.00
2018-07-22T06:14:38.443Z,42.80
2018-07-22T06:17:07.288Z,42.50
2018-07-22T06:19:36.192Z,42.40
2018-07-22T06:22:04.984Z,42.30
2018-07-22T06:24:33.852Z,42.20
2018-07-22T06:27:02.773Z,42.20
2018-07-22T06:29:31.644Z,42.20
2018-07-22T06:32:00.517Z,42.00
2018-07-22T06:34:29.333Z,42.70
2018-07-22T06:36:58.237Z,42.50
2018-07-22T06:39:27.020Z,42.20
2018-07-22T06:41:55.857Z,41.90
2018-07-22T06:44:24.714Z,41.80
2018-07-22T06:46:53.621Z,41.60
2018-07-22T06:49:22.576Z,41.80
2018-07-22T06:51:51.383Z,41.60
2018-07-22T06:54:20.538Z,41.30
2018-07-22T06:56:49.592Z,41.10
2018-07-22T06:59:20.072Z,41.10
2018-07-22T07:01:48.957Z,40.90
2018-07-22T07:04:17.814Z,40.90
2018-07-22T07:06:46.644Z,40.80
2018-07-22T07:09:17.061Z,40.50
2018-07-22T07:11:45.969Z,40.30
2018-07-22T07:14:15.682Z,40.20
2018-07-22T07:16:44.539Z,40.20
2018-07-22T07:19:13.454Z,39.80
2018-07-22T07:21:42.329Z,39.80
2018-07-22T07:24:11.342Z,39.70
2018-07-22T07:26:40.372Z,39.60
2018-07-22T07:29:09.233Z,39.70
2018-07-22T07:31:38.352Z,39.20
2018-07-22T07:34:08.716Z,38.90
2018-07-22T07:36:38.272Z,38.60
2018-07-22T07:39:11.145Z,38.50
2018-07-22T07:41:40.103Z,38.30
2018-07-22T07:44:09.496Z,38.20
2018-07-22T07:46:38.971Z,38.10
2018-07-22T07:49:07.805Z,38.00
2018-07-22T07:51:37.880Z,38.00
2018-07-22T07:54:06.769Z,37.70
2018-07-22T07:56:35.719Z,37.40
2018-07-22T07:59:04.778Z,37.20
2018-07-22T08:01:33.696Z,36.90
2018-07-22T08:04:03.003Z,36.60
2018-07-22T08:06:33.085Z,36.30
2018-07-22T08:09:02.079Z,35.90
2018-07-22T08:11:30.968Z,35.80
2018-07-22T08:13:59.877Z,35.50
2018-07-22T08:16:30.148Z,35.20
2018-07-22T08:18:59.007Z,34.90
2018-07-22T08:21:27.970Z,35.00
2018-07-22T08:23:57.294Z,34.70
2018-07-22T08:26:26.376Z,34.40
2018-07-22T08:29:07.622Z,34.20
2018-07-22T08:31:36.512Z,34.10
2018-07-22T08:34:05.444Z,34.00
2018-07-22T08:36:34.389Z,33.00
2018-07-22T08:39:04.397Z,33.20
2018-07-22T08:41:33.970Z,33.20
2018-07-22T08:44:02.790Z,32.70
2018-07-22T08:46:31.804Z,32.70
2018-07-22T08:49:01.258Z,32.60
2018-07-22T08:51:36.952Z,32.20
2018-07-22T08:54:05.870Z,31.90
2018-07-22T08:56:34.847Z,31.50
2018-07-22T08:59:04.946Z,32.00
2018-07-22T09:01:33.791Z,30.90
2018-07-22T09:04:02.652Z,31.00
2018-07-22T09:06:31.562Z,31.20
2018-07-22T09:09:00.577Z,31.20
2018-07-22T09:11:30.123Z,31.00
2018-07-22T09:13:59.101Z,30.60
2018-07-22T09:16:28.648Z,30.00
2018-07-22T09:18:57.637Z,30.10
2018-07-22T09:21:26.487Z,30.10
2018-07-22T09:23:55.339Z,30.20
2018-07-22T09:26:24.293Z,30.20
2018-07-22T09:28:53.210Z,30.20
2018-07-22T09:31:22.128Z,30.00
2018-07-22T09:33:50.999Z,29.90
2018-07-22T09:36:19.870Z,29.80
2018-07-22T09:38:48.748Z,29.10
2018-07-22T09:41:17.651Z,29.40
2018-07-22T09:43:47.384Z,29.50
2018-07-22T09:46:16.243Z,29.40
2018-07-22T09:48:45.097Z,29.20
2018-07-22T09:51:14.057Z,28.80
2018-07-22T09:53:43.022Z,28.80
2018-07-22T09:56:12.132Z,28.70
2018-07-22T09:58:41.029Z,28.60
2018-07-22T10:01:09.873Z,28.80
2018-07-22T10:03:39.011Z,28.80
2018-07-22T10:06:08.332Z,28.60
2018-07-22T10:08:37.220Z,28.60
2018-07-22T10:11:06.333Z,29.10
2018-07-22T10:13:35.208Z,28.40
2018-07-22T10:16:04.992Z,28.30
2018-07-22T10:18:33.796Z,28.30
2018-07-22T10:21:02.709Z,28.40
2018-07-22T10:23:31.685Z,28.20
2018-07-22T10:26:00.774Z,28.20
2018-07-22T10:28:29.703Z,28.00
2018-07-22T10:30:58.616Z,27.70
2018-07-22T10:33:27.443Z,27.60
2018-07-22T10:35:56.342Z,27.50
2018-07-22T10:38:25.259Z,27.70
2018-07-22T10:40:54.162Z,27.70
2018-07-22T10:43:23.100Z,27.50
2018-07-22T10:45:51.915Z,27.30
2018-07-22T10:48:20.829Z,26.70
2018-07-22T10:50:49.744Z,26.90
2018-07-22T10:53:18.614Z,27.10
2018-07-22T10:55:47.478Z,27.20
2018-07-22T10:58:16.412Z,27.10
2018-07-22T11:00:45.575Z,27.10
2018-07-22T11:03:14.500Z,27.10
2018-07-22T11:05:43.377Z,27.00
2018-07-22T11:08:12.264Z,27.20
2018-07-22T11:10:41.721Z,26.90
2018-07-22T11:13:10.598Z,27.00
2018-07-22T11:15:39.459Z,27.20
2018-07-22T11:18:08.360Z,27.30
2018-07-22T11:20:37.253Z,27.20
2018-07-22T11:23:06.141Z,27.40
2018-07-22T11:25:35.005Z,27.30
2018-07-22T11:28:04.877Z,27.40
2018-07-22T11:30:33.787Z,27.50
2018-07-22T11:33:02.698Z,27.40
2018-07-22T11:35:31.634Z,27.50
2018-07-22T11:38:00.512Z,27.50
2018-07-22T11:40:29.515Z,28.00
2018-07-22T11:42:58.378Z,27.50
2018-07-22T11:45:27.249Z,27.50
2018-07-22T11:47:56.137Z,27.20
2018-07-22T11:50:25.038Z,27.50
2018-07-22T11:52:53.859Z,27.50
2018-07-22T11:55:22.737Z,27.60
2018-07-22T11:57:51.865Z,27.70
2018-07-22T12:00:20.796Z,27.70
2018-07-22T12:02:49.714Z,27.60
2018-07-22T12:05:18.602Z,27.70
2018-07-22T12:07:47.496Z,27.30
2018-07-22T12:10:16.347Z,27.50
2018-07-22T12:12:45.245Z,27.60
2018-07-22T12:15:14.138Z,27.50
2018-07-22T12:17:43.099Z,27.40
2018-07-22T12:20:12.277Z,27.40
2018-07-22T12:22:42.204Z,27.70
2018-07-22T12:25:11.140Z,27.50
2018-07-22T12:27:40.056Z,27.70
2018-07-22T12:30:09.011Z,27.90
2018-07-22T12:32:37.976Z,27.90
2018-07-22T12:35:06.841Z,28.00
2018-07-22T12:37:35.655Z,28.00
2018-07-22T12:40:04.748Z,27.90
2018-07-22T12:45:03.290Z,27.70
2018-07-22T12:47:32.201Z,27.70
2018-07-22T12:50:02.594Z,27.80
2018-07-22T12:52:31.495Z,28.00
2018-07-22T12:55:00.308Z,28.10
2018-07-22T12:57:29.345Z,27.90
2018-07-22T12:59:58.284Z,28.10
2018-07-22T13:02:28.130Z,28.20
2018-07-22T13:04:57.004Z,27.80
2018-07-22T13:09:54.504Z,28.20
2018-07-22T13:12:23.408Z,28.20
2018-07-22T13:14:52.336Z,28.10
2018-07-22T13:17:21.260Z,28.00
2018-07-22T13:19:50.169Z,28.00
2018-07-22T13:24:47.539Z,27.90
2018-07-22T13:27:16.959Z,28.00
2018-07-22T13:29:45.846Z,27.80
2018-07-22T13:32:14.751Z,27.90
2018-07-22T13:34:43.613Z,28.10
2018-07-22T13:37:12.536Z,28.10
2018-07-22T13:39:41.407Z,28.30
2018-07-22T13:42:10.235Z,27.90
2018-07-22T13:44:39.396Z,27.90
2018-07-22T13:47:08.334Z,28.00
2018-07-22T13:49:37.171Z,27.90
2018-07-22T13:52:06.643Z,27.90
2018-07-22T13:54:35.565Z,27.90
2018-07-22T13:57:04.805Z,27.50
2018-07-22T13:59:33.720Z,27.60
2018-07-22T14:02:02.617Z,27.80
2018-07-22T14:04:31.552Z,27.70
2018-07-22T14:07:00.462Z,27.70
2018-07-22T14:09:29.325Z,27.60
2018-07-22T14:11:58.395Z,27.50
2018-07-22T14:14:27.240Z,27.60
2018-07-22T14:16:56.160Z,27.80
2018-07-22T14:19:25.037Z,27.70
2018-07-22T14:21:53.928Z,27.20
2018-07-22T14:24:22.929Z,26.90
2018-07-22T14:26:51.782Z,27.00
2018-07-22T14:29:20.684Z,27.30
2018-07-22T14:31:49.582Z,27.10
2018-07-22T14:34:18.393Z,27.20
2018-07-22T14:36:47.261Z,27.00
2018-07-22T14:39:16.199Z,27.20
2018-07-22T14:41:45.080Z,27.30
2018-07-22T14:44:14.011Z,27.10
2018-07-22T14:46:42.879Z,27.20
2018-07-22T14:49:11.768Z,27.30
2018-07-22T14:51:40.660Z,27.40
2018-07-22T14:54:09.533Z,27.30
2018-07-22T14:56:38.392Z,27.30
2018-07-22T14:59:07.303Z,27.00
2018-07-22T15:01:36.271Z,27.30
2018-07-22T15:04:05.141Z,27.20
2018-07-22T15:06:34.010Z,27.40
2018-07-22T15:09:02.957Z,27.40
2018-07-22T15:11:31.824Z,27.60
2018-07-22T15:14:00.996Z,27.50
2018-07-22T15:16:29.835Z,27.40
2018-07-22T15:18:58.812Z,27.40
2018-07-22T15:21:27.647Z,27.50
2018-07-22T15:23:56.489Z,27.40
2018-07-22T15:26:25.373Z,26.80
2018-07-22T15:28:54.280Z,26.80
2018-07-22T15:31:23.145Z,27.20
2018-07-22T15:33:51.996Z,27.40
2018-07-22T15:36:20.873Z,27.60
2018-07-22T15:38:49.692Z,27.60
2018-07-22T15:41:18.599Z,27.60
2018-07-22T15:43:47.501Z,27.60
2018-07-22T15:46:16.423Z,27.60
2018-07-22T15:48:45.301Z,27.60
2018-07-22T15:51:14.197Z,27.20
2018-07-22T15:53:43.032Z,27.20
2018-07-22T15:56:11.923Z,27.40
2018-07-22T15:58:40.847Z,27.50
2018-07-22T16:01:09.732Z,27.50
2018-07-22T16:03:38.588Z,27.20
2018-07-22T16:06:07.493Z,27.00
2018-07-22T16:08:36.367Z,27.30
2018-07-22T16:11:05.180Z,27.50
2018-07-22T16:13:34.100Z,27.60
2018-07-22T16:16:03.026Z,27.80
2018-07-22T16:18:31.881Z,27.80
2018-07-22T16:21:00.806Z,27.90
2018-07-22T16:23:29.632Z,27.90
2018-07-22T16:25:58.473Z,27.90
2018-07-22T16:28:27.337Z,27.90
2018-07-22T16:30:56.209Z,27.70
2018-07-22T16:33:25.083Z,28.10
2018-07-22T16:35:53.919Z,27.80
2018-07-22T16:38:22.825Z,27.40
2018-07-22T16:40:51.675Z,27.50
2018-07-22T16:43:20.674Z,27.60
2018-07-22T16:45:50.075Z,28.10
2018-07-22T16:48:18.960Z,28.20
2018-07-22T16:50:48.881Z,28.40
2018-07-22T16:53:17.765Z,28.40
2018-07-22T16:55:46.670Z,28.40
2018-07-22T16:58:16.451Z,28.40
2018-07-22T17:00:45.452Z,28.50
2018-07-22T17:05:42.888Z,28.40
2018-07-22T17:08:12.324Z,28.50
2018-07-22T17:10:41.279Z,28.60
2018-07-22T17:13:10.128Z,28.60
2018-07-22T17:15:38.993Z,28.50
2018-07-22T17:18:07.847Z,28.40
2018-07-22T17:20:36.746Z,28.50
2018-07-22T17:25:35.159Z,28.10
2018-07-22T17:28:05.092Z,28.10
2018-07-22T17:30:33.963Z,28.30
2018-07-22T17:33:02.911Z,28.30
2018-07-22T17:35:32.067Z,28.20
2018-07-22T17:38:01.969Z,28.30
2018-07-22T17:40:30.907Z,28.40
2018-07-22T17:42:59.809Z,28.40
2018-07-22T17:45:28.660Z,28.30
2018-07-22T17:47:58.446Z,28.30
2018-07-22T17:50:27.341Z,28.40
2018-07-22T17:52:56.224Z,28.30
2018-07-22T17:55:25.094Z,28.20
2018-07-22T17:57:54.059Z,28.80
2018-07-22T18:00:22.999Z,28.30
2018-07-22T18:03:01.627Z,28.20
2018-07-22T18:05:30.481Z,28.30
2018-07-22T18:07:59.374Z,28.30
2018-07-22T18:10:28.488Z,28.30
2018-07-22T18:12:57.341Z,28.40
2018-07-22T18:15:26.212Z,28.40
2018-07-22T18:17:55.145Z,28.50
2018-07-22T18:20:23.955Z,28.60
2018-07-22T18:22:52.903Z,28.70
2018-07-22T18:25:21.838Z,28.80
2018-07-22T18:27:50.726Z,28.80
2018-07-22T18:30:19.590Z,28.90
2018-07-22T18:32:49.197Z,29.00
2018-07-22T18:37:47.576Z,29.20
2018-07-22T18:40:16.464Z,29.60
2018-07-22T18:42:45.425Z,29.50
2018-07-22T18:45:14.350Z,29.60
2018-07-22T18:47:44.287Z,29.70
2018-07-22T18:50:14.199Z,29.80
2018-07-22T18:52:44.143Z,29.90
2018-07-22T18:55:13.899Z,30.70
2018-07-22T18:57:43.765Z,30.20
2018-07-22T19:00:12.989Z,30.30
2018-07-22T19:02:44.179Z,30.40
2018-07-22T19:05:13.213Z,30.40
2018-07-22T19:07:42.158Z,30.60
2018-07-22T19:10:11.605Z,31.50
2018-07-22T19:12:41.384Z,31.00
2018-07-22T19:15:11.273Z,31.30
2018-07-22T19:17:40.121Z,31.40
2018-07-22T19:20:08.977Z,31.50
2018-07-22T19:22:37.903Z,31.60
2018-07-22T19:25:08.305Z,31.90
2018-07-22T19:27:37.127Z,32.00
2018-07-22T19:30:06.322Z,32.20
2018-07-22T19:32:35.227Z,32.30
2018-07-22T19:35:04.683Z,32.50
2018-07-22T19:37:33.562Z,32.70
2018-07-22T19:40:02.460Z,32.70
2018-07-22T19:42:31.241Z,32.90
2018-07-22T19:45:00.124Z,32.90
2018-07-22T19:47:29.514Z,32.90
2018-07-22T19:49:58.393Z,33.10
2018-07-22T19:52:27.325Z,33.10
2018-07-22T19:54:56.193Z,33.90
2018-07-22T19:57:25.096Z,33.20
2018-07-22T19:59:53.971Z,33.30
2018-07-22T20:02:22.876Z,33.40
2018-07-22T20:04:51.751Z,33.60
2018-07-22T20:07:20.655Z,33.60
2018-07-22T20:09:49.494Z,33.70
2018-07-22T20:12:18.350Z,33.80
2018-07-22T20:14:47.204Z,33.80
2018-07-22T20:17:16.071Z,33.80
2018-07-22T20:19:44.909Z,33.90
2018-07-22T20:22:13.779Z,33.90
2018-07-22T20:24:43.227Z,34.10
2018-07-22T20:27:12.662Z,34.20
2018-07-22T20:29:41.531Z,34.20
2018-07-22T20:32:10.417Z,35.10
2018-07-22T20:34:39.288Z,35.00
2018-07-22T20:37:08.169Z,35.10
2018-07-22T20:39:37.065Z,36.00
2018-07-22T20:42:05.888Z,35.90
2018-07-22T20:44:34.720Z,35.70
2018-07-22T20:47:04.612Z,35.60
2018-07-22T20:49:33.490Z,35.60
2018-07-22T20:52:02.976Z,35.70
2018-07-22T20:54:31.909Z,35.80
2018-07-22T20:57:00.778Z,35.90
2018-07-22T20:59:29.613Z,35.90
2018-07-22T21:01:58.499Z,36.00
2018-07-22T21:04:27.375Z,36.70
2018-07-22T21:06:56.313Z,36.50
2018-07-22T21:09:25.969Z,36.70
2018-07-22T21:13:08.132Z,37.00
2018-07-22T21:15:37.085Z,36.90
2018-07-22T21:18:05.965Z,36.80
2018-07-22T21:23:03.339Z,36.80
2018-07-22T21:25:32.187Z,37.50
2018-07-22T21:28:01.091Z,37.30
2018-07-22T21:30:30.033Z,37.30
2018-07-22T21:32:58.873Z,37.70
2018-07-22T21:35:27.791Z,37.90
2018-07-22T21:37:56.664Z,37.80
2018-07-22T21:40:25.581Z,37.70
2018-07-22T21:42:54.429Z,37.70
2018-07-22T21:45:23.523Z,37.70
2018-07-22T21:47:52.372Z,37.60
2018-07-22T21:50:21.968Z,37.70
2018-07-22T21:52:50.778Z,37.70
2018-07-22T21:55:19.980Z,37.70
2018-07-22T21:57:48.825Z,37.70
2018-07-22T22:00:20.901Z,37.70
2018-07-22T22:02:50.322Z,37.70
2018-07-22T22:05:19.168Z,37.80
2018-07-22T22:10:17.039Z,37.80
2018-07-22T22:12:45.880Z,37.80
2018-07-22T22:15:31.247Z,37.80
2018-07-22T22:18:01.419Z,37.80
2018-07-22T22:20:30.608Z,37.80
2018-07-22T22:22:59.466Z,37.90
2018-07-22T22:25:28.294Z,37.90
2018-07-22T22:27:57.168Z,37.40
2018-07-22T22:30:26.006Z,38.00
2018-07-22T22:32:54.848Z,38.60
2018-07-22T22:35:23.702Z,38.40
2018-07-22T22:37:52.536Z,38.40
2018-07-22T22:40:21.933Z,38.50
2018-07-22T22:42:50.813Z,38.50
2018-07-22T22:45:19.676Z,38.60
2018-07-22T22:47:48.501Z,38.80
2018-07-22T22:50:17.417Z,38.80
2018-07-22T22:52:46.264Z,38.90
2018-07-22T22:55:15.164Z,38.90
2018-07-22T22:57:55.569Z,38.90
2018-07-22T23:00:24.456Z,39.10
2018-07-22T23:02:53.331Z,39.20
2018-07-22T23:05:22.168Z,39.20
2018-07-22T23:07:51.018Z,39.30
2018-07-22T23:10:20.019Z,39.40
2018-07-22T23:12:48.867Z,39.50
2018-07-22T23:15:17.663Z,39.60
2018-07-22T23:17:46.517Z,39.70
2018-07-22T23:20:15.331Z,39.80
2018-07-22T23:22:44.158Z,39.90
2018-07-22T23:25:13.002Z,40.00
2018-07-22T23:27:41.856Z,40.70
